sensor_id;sensor_type;location;lat;lon;timestamp;P1;durP1;ratioP1;P2;durP2;ratioP2
60344;SDS011;46188;52.324;8.032;2023-04-25T00:02:19;9.40;;;4.35;;
60344;SDS011;46188;52.324;8.032;2023-04-25T00:04:44;9.82;;;4.53;;
60344;SDS011;46188;52.324;8.032;2023-04-25T00:07:09;10.57;;;4.47;;
60344;SDS011;46188;52.324;8.032;2023-04-25T00:09:35;11.20;;;4.13;;
60344;SDS011;46188;52.324;8.032;2023-04-25T00:12:00;11.40;;;4.80;;
60344;SDS011;46188;52.324;8.032;2023-04-25T00:14:26;11.05;;;5.05;;
60344;SDS011;46188;52.324;8.032;2023-04-25T00:16:52;14.30;;;4.90;;
60344;SDS011;46188;52.324;8.032;2023-04-25T00:19:18;13.30;;;4.93;;
60344;SDS011;46188;52.324;8.032;2023-04-25T00:21:44;8.02;;;4.55;;
60344;SDS011;46188;52.324;8.032;2023-04-25T00:24:11;7.72;;;4.22;;
60344;SDS011;46188;52.324;8.032;2023-04-25T00:26:36;12.95;;;4.93;;
60344;SDS011;46188;52.324;8.032;2023-04-25T00:29:02;11.15;;;6.13;;
60344;SDS011;46188;52.324;8.032;2023-04-25T00:31:27;17.35;;;5.03;;
60344;SDS011;46188;52.324;8.032;2023-04-25T00:33:53;13.90;;;5.68;;
60344;SDS011;46188;52.324;8.032;2023-04-25T00:36:19;13.35;;;5.85;;
60344;SDS011;46188;52.324;8.032;2023-04-25T00:38:44;11.77;;;4.47;;
60344;SDS011;46188;52.324;8.032;2023-04-25T00:41:10;17.70;;;4.78;;
60344;SDS011;46188;52.324;8.032;2023-04-25T00:43:36;9.85;;;4.20;;
60344;SDS011;46188;52.324;8.032;2023-04-25T00:46:01;10.35;;;4.78;;
60344;SDS011;46188;52.324;8.032;2023-04-25T00:48:26;14.57;;;4.63;;
60344;SDS011;46188;52.324;8.032;2023-04-25T00:50:53;18.88;;;5.05;;
60344;SDS011;46188;52.324;8.032;2023-04-25T00:53:20;17.05;;;4.28;;
60344;SDS011;46188;52.324;8.032;2023-04-25T00:55:46;12.10;;;4.30;;
60344;SDS011;46188;52.324;8.032;2023-04-25T00:58:12;12.32;;;4.65;;
60344;SDS011;46188;52.324;8.032;2023-04-25T01:00:37;17.55;;;5.35;;
60344;SDS011;46188;52.324;8.032;2023-04-25T01:03:02;19.00;;;3.78;;
60344;SDS011;46188;52.324;8.032;2023-04-25T01:05:28;20.30;;;4.20;;
60344;SDS011;46188;52.324;8.032;2023-04-25T01:07:54;17.50;;;4.10;;
60344;SDS011;46188;52.324;8.032;2023-04-25T01:10:19;18.42;;;4.25;;
60344;SDS011;46188;52.324;8.032;2023-04-25T01:12:45;22.15;;;4.53;;
60344;SDS011;46188;52.324;8.032;2023-04-25T01:15:10;20.38;;;4.65;;
60344;SDS011;46188;52.324;8.032;2023-04-25T01:17:35;13.75;;;4.80;;
60344;SDS011;46188;52.324;8.032;2023-04-25T01:20:03;27.25;;;4.75;;
60344;SDS011;46188;52.324;8.032;2023-04-25T01:22:29;14.38;;;4.13;;
60344;SDS011;46188;52.324;8.032;2023-04-25T01:24:54;20.48;;;4.65;;
60344;SDS011;46188;52.324;8.032;2023-04-25T01:27:20;15.35;;;4.30;;
60344;SDS011;46188;52.324;8.032;2023-04-25T01:29:46;13.80;;;4.55;;
60344;SDS011;46188;52.324;8.032;2023-04-25T01:32:12;15.73;;;3.92;;
60344;SDS011;46188;52.324;8.032;2023-04-25T01:34:38;18.85;;;4.80;;
60344;SDS011;46188;52.324;8.032;2023-04-25T01:37:04;18.23;;;4.40;;
60344;SDS011;46188;52.324;8.032;2023-04-25T01:39:29;21.90;;;4.78;;
60344;SDS011;46188;52.324;8.032;2023-04-25T01:41:55;19.00;;;4.30;;
60344;SDS011;46188;52.324;8.032;2023-04-25T01:44:21;21.15;;;4.53;;
60344;SDS011;46188;52.324;8.032;2023-04-25T01:46:46;19.40;;;4.60;;
60344;SDS011;46188;52.324;8.032;2023-04-25T01:49:11;15.43;;;4.03;;
60344;SDS011;46188;52.324;8.032;2023-04-25T01:51:36;14.65;;;3.95;;
60344;SDS011;46188;52.324;8.032;2023-04-25T01:54:02;12.52;;;4.13;;
60344;SDS011;46188;52.324;8.032;2023-04-25T01:56:31;17.65;;;5.35;;
60344;SDS011;46188;52.324;8.032;2023-04-25T01:58:57;18.70;;;4.88;;
60344;SDS011;46188;52.324;8.032;2023-04-25T02:01:23;21.65;;;4.60;;
60344;SDS011;46188;52.324;8.032;2023-04-25T02:03:48;18.17;;;4.28;;
60344;SDS011;46188;52.324;8.032;2023-04-25T02:06:13;16.10;;;4.40;;
60344;SDS011;46188;52.324;8.032;2023-04-25T02:08:38;14.75;;;4.53;;
60344;SDS011;46188;52.324;8.032;2023-04-25T02:11:04;21.27;;;5.75;;
60344;SDS011;46188;52.324;8.032;2023-04-25T02:13:29;16.60;;;4.50;;
60344;SDS011;46188;52.324;8.032;2023-04-25T02:15:54;26.27;;;6.72;;
60344;SDS011;46188;52.324;8.032;2023-04-25T02:18:20;21.35;;;4.32;;
60344;SDS011;46188;52.324;8.032;2023-04-25T02:20:46;17.02;;;4.47;;
60344;SDS011;46188;52.324;8.032;2023-04-25T02:23:11;15.43;;;3.85;;
60344;SDS011;46188;52.324;8.032;2023-04-25T02:25:37;20.90;;;4.40;;
60344;SDS011;46188;52.324;8.032;2023-04-25T02:28:02;22.90;;;4.40;;
60344;SDS011;46188;52.324;8.032;2023-04-25T02:30:27;18.48;;;4.65;;
60344;SDS011;46188;52.324;8.032;2023-04-25T02:32:53;13.00;;;4.43;;
60344;SDS011;46188;52.324;8.032;2023-04-25T02:35:18;13.45;;;4.13;;
60344;SDS011;46188;52.324;8.032;2023-04-25T02:37:43;23.00;;;4.78;;
60344;SDS011;46188;52.324;8.032;2023-04-25T02:40:09;19.48;;;4.80;;
60344;SDS011;46188;52.324;8.032;2023-04-25T02:42:34;22.95;;;4.60;;
60344;SDS011;46188;52.324;8.032;2023-04-25T02:45:00;15.20;;;4.35;;
60344;SDS011;46188;52.324;8.032;2023-04-25T02:47:25;20.88;;;4.47;;
60344;SDS011;46188;52.324;8.032;2023-04-25T02:49:51;13.77;;;4.47;;
60344;SDS011;46188;52.324;8.032;2023-04-25T02:52:16;18.20;;;4.35;;
60344;SDS011;46188;52.324;8.032;2023-04-25T02:54:41;13.10;;;4.68;;
60344;SDS011;46188;52.324;8.032;2023-04-25T02:57:07;20.73;;;3.88;;
60344;SDS011;46188;52.324;8.032;2023-04-25T02:59:33;16.10;;;5.10;;
60344;SDS011;46188;52.324;8.032;2023-04-25T03:01:59;16.92;;;4.68;;
60344;SDS011;46188;52.324;8.032;2023-04-25T03:04:24;16.95;;;4.03;;
60344;SDS011;46188;52.324;8.032;2023-04-25T03:06:50;20.20;;;4.25;;
60344;SDS011;46188;52.324;8.032;2023-04-25T03:09:15;17.73;;;4.25;;
60344;SDS011;46188;52.324;8.032;2023-04-25T03:11:41;15.15;;;4.55;;
60344;SDS011;46188;52.324;8.032;2023-04-25T03:14:07;14.65;;;4.32;;
60344;SDS011;46188;52.324;8.032;2023-04-25T03:16:32;18.50;;;4.15;;
60344;SDS011;46188;52.324;8.032;2023-04-25T03:18:57;17.33;;;4.60;;
60344;SDS011;46188;52.324;8.032;2023-04-25T03:21:22;9.23;;;3.80;;
60344;SDS011;46188;52.324;8.032;2023-04-25T03:23:48;14.80;;;4.47;;
60344;SDS011;46188;52.324;8.032;2023-04-25T03:26:13;15.80;;;4.00;;
60344;SDS011;46188;52.324;8.032;2023-04-25T03:28:39;13.05;;;4.07;;
60344;SDS011;46188;52.324;8.032;2023-04-25T03:31:05;14.55;;;3.70;;
60344;SDS011;46188;52.324;8.032;2023-04-25T03:33:30;15.15;;;4.40;;
60344;SDS011;46188;52.324;8.032;2023-04-25T03:35:55;16.13;;;4.80;;
60344;SDS011;46188;52.324;8.032;2023-04-25T03:38:21;19.25;;;4.82;;
60344;SDS011;46188;52.324;8.032;2023-04-25T03:40:46;16.80;;;4.38;;
60344;SDS011;46188;52.324;8.032;2023-04-25T03:43:11;15.65;;;4.25;;
60344;SDS011;46188;52.324;8.032;2023-04-25T03:45:37;18.08;;;5.10;;
60344;SDS011;46188;52.324;8.032;2023-04-25T03:48:02;12.82;;;4.43;;
60344;SDS011;46188;52.324;8.032;2023-04-25T03:50:27;19.83;;;4.70;;
60344;SDS011;46188;52.324;8.032;2023-04-25T03:52:52;17.02;;;4.20;;
60344;SDS011;46188;52.324;8.032;2023-04-25T03:55:18;22.98;;;5.30;;
60344;SDS011;46188;52.324;8.032;2023-04-25T03:57:43;16.25;;;5.05;;
60344;SDS011;46188;52.324;8.032;2023-04-25T04:00:08;18.83;;;4.60;;
60344;SDS011;46188;52.324;8.032;2023-04-25T04:02:34;20.65;;;4.85;;
60344;SDS011;46188;52.324;8.032;2023-04-25T04:05:01;21.00;;;5.63;;
60344;SDS011;46188;52.324;8.032;2023-04-25T04:07:26;18.98;;;5.00;;
60344;SDS011;46188;52.324;8.032;2023-04-25T04:09:51;19.60;;;4.38;;
60344;SDS011;46188;52.324;8.032;2023-04-25T04:12:17;22.42;;;4.82;;
60344;SDS011;46188;52.324;8.032;2023-04-25T04:14:42;20.67;;;5.25;;
60344;SDS011;46188;52.324;8.032;2023-04-25T04:17:07;17.17;;;5.20;;
60344;SDS011;46188;52.324;8.032;2023-04-25T04:19:32;14.02;;;4.22;;
60344;SDS011;46188;52.324;8.032;2023-04-25T04:21:58;16.98;;;4.45;;
60344;SDS011;46188;52.324;8.032;2023-04-25T04:24:23;17.95;;;5.03;;
60344;SDS011;46188;52.324;8.032;2023-04-25T04:26:49;18.77;;;5.97;;
60344;SDS011;46188;52.324;8.032;2023-04-25T04:29:15;16.63;;;4.68;;
60344;SDS011;46188;52.324;8.032;2023-04-25T04:31:46;15.30;;;5.43;;
60344;SDS011;46188;52.324;8.032;2023-04-25T04:34:15;26.13;;;5.05;;
60344;SDS011;46188;52.324;8.032;2023-04-25T04:36:41;19.27;;;5.00;;
60344;SDS011;46188;52.324;8.032;2023-04-25T04:39:07;19.10;;;4.82;;
60344;SDS011;46188;52.324;8.032;2023-04-25T04:41:34;14.45;;;4.50;;
60344;SDS011;46188;52.324;8.032;2023-04-25T04:43:59;21.45;;;5.18;;
60344;SDS011;46188;52.324;8.032;2023-04-25T04:46:26;18.63;;;5.00;;
60344;SDS011;46188;52.324;8.032;2023-04-25T04:48:52;23.13;;;6.65;;
60344;SDS011;46188;52.324;8.032;2023-04-25T04:51:18;19.35;;;4.57;;
60344;SDS011;46188;52.324;8.032;2023-04-25T04:53:43;13.63;;;6.47;;
60344;SDS011;46188;52.324;8.032;2023-04-25T04:56:08;15.27;;;5.18;;
60344;SDS011;46188;52.324;8.032;2023-04-25T04:58:34;19.17;;;4.78;;
60344;SDS011;46188;52.324;8.032;2023-04-25T05:01:00;13.80;;;5.13;;
60344;SDS011;46188;52.324;8.032;2023-04-25T05:03:25;20.67;;;5.10;;
60344;SDS011;46188;52.324;8.032;2023-04-25T05:05:52;13.55;;;4.70;;
60344;SDS011;46188;52.324;8.032;2023-04-25T05:08:17;11.73;;;4.30;;
60344;SDS011;46188;52.324;8.032;2023-04-25T05:10:42;15.43;;;4.65;;
60344;SDS011;46188;52.324;8.032;2023-04-25T05:13:07;23.90;;;7.25;;
60344;SDS011;46188;52.324;8.032;2023-04-25T05:15:33;17.92;;;5.65;;
60344;SDS011;46188;52.324;8.032;2023-04-25T05:17:58;14.68;;;4.65;;
60344;SDS011;46188;52.324;8.032;2023-04-25T05:20:23;13.95;;;4.43;;
60344;SDS011;46188;52.324;8.032;2023-04-25T05:22:48;16.92;;;6.78;;
60344;SDS011;46188;52.324;8.032;2023-04-25T05:25:14;16.20;;;5.10;;
60344;SDS011;46188;52.324;8.032;2023-04-25T05:27:39;20.92;;;5.88;;
60344;SDS011;46188;52.324;8.032;2023-04-25T05:30:05;21.73;;;5.90;;
60344;SDS011;46188;52.324;8.032;2023-04-25T05:32:31;20.33;;;5.55;;
60344;SDS011;46188;52.324;8.032;2023-04-25T05:34:56;14.93;;;5.28;;
60344;SDS011;46188;52.324;8.032;2023-04-25T05:37:21;19.60;;;5.38;;
60344;SDS011;46188;52.324;8.032;2023-04-25T05:39:46;18.60;;;5.45;;
60344;SDS011;46188;52.324;8.032;2023-04-25T05:42:12;20.85;;;5.03;;
60344;SDS011;46188;52.324;8.032;2023-04-25T05:44:37;17.10;;;5.70;;
60344;SDS011;46188;52.324;8.032;2023-04-25T05:47:02;14.63;;;4.68;;
60344;SDS011;46188;52.324;8.032;2023-04-25T05:49:29;16.10;;;4.85;;
60344;SDS011;46188;52.324;8.032;2023-04-25T05:51:54;18.88;;;5.40;;
60344;SDS011;46188;52.324;8.032;2023-04-25T05:54:20;18.63;;;4.43;;
60344;SDS011;46188;52.324;8.032;2023-04-25T05:56:45;18.00;;;4.55;;
60344;SDS011;46188;52.324;8.032;2023-04-25T05:59:10;18.52;;;4.03;;
60344;SDS011;46188;52.324;8.032;2023-04-25T06:01:35;12.90;;;4.97;;
60344;SDS011;46188;52.324;8.032;2023-04-25T06:04:01;14.93;;;4.45;;
60344;SDS011;46188;52.324;8.032;2023-04-25T06:06:26;16.60;;;4.97;;
60344;SDS011;46188;52.324;8.032;2023-04-25T06:08:52;18.52;;;4.03;;
60344;SDS011;46188;52.324;8.032;2023-04-25T06:11:17;16.38;;;5.60;;
60344;SDS011;46188;52.324;8.032;2023-04-25T06:13:43;14.70;;;4.10;;
60344;SDS011;46188;52.324;8.032;2023-04-25T06:16:08;17.38;;;5.30;;
60344;SDS011;46188;52.324;8.032;2023-04-25T06:18:33;19.00;;;4.82;;
60344;SDS011;46188;52.324;8.032;2023-04-25T06:20:58;15.05;;;4.13;;
60344;SDS011;46188;52.324;8.032;2023-04-25T06:23:24;15.45;;;4.07;;
60344;SDS011;46188;52.324;8.032;2023-04-25T06:25:49;16.98;;;4.55;;
60344;SDS011;46188;52.324;8.032;2023-04-25T06:28:14;17.98;;;4.07;;
60344;SDS011;46188;52.324;8.032;2023-04-25T06:30:40;10.98;;;3.50;;
60344;SDS011;46188;52.324;8.032;2023-04-25T06:33:05;12.98;;;4.05;;
60344;SDS011;46188;52.324;8.032;2023-04-25T06:35:30;13.48;;;4.90;;
60344;SDS011;46188;52.324;8.032;2023-04-25T06:37:56;13.00;;;4.13;;
60344;SDS011;46188;52.324;8.032;2023-04-25T06:40:21;10.65;;;3.22;;
60344;SDS011;46188;52.324;8.032;2023-04-25T06:42:46;16.52;;;3.78;;
60344;SDS011;46188;52.324;8.032;2023-04-25T06:45:11;15.00;;;3.78;;
60344;SDS011;46188;52.324;8.032;2023-04-25T06:47:37;17.25;;;3.58;;
60344;SDS011;46188;52.324;8.032;2023-04-25T06:50:02;10.55;;;3.30;;
60344;SDS011;46188;52.324;8.032;2023-04-25T06:52:28;16.92;;;3.42;;
60344;SDS011;46188;52.324;8.032;2023-04-25T06:54:53;20.98;;;4.05;;
60344;SDS011;46188;52.324;8.032;2023-04-25T06:57:18;17.55;;;3.38;;
60344;SDS011;46188;52.324;8.032;2023-04-25T06:59:43;18.65;;;3.65;;
60344;SDS011;46188;52.324;8.032;2023-04-25T07:02:09;11.02;;;3.38;;
60344;SDS011;46188;52.324;8.032;2023-04-25T07:04:34;11.50;;;3.55;;
60344;SDS011;46188;52.324;8.032;2023-04-25T07:07:00;13.00;;;3.00;;
60344;SDS011;46188;52.324;8.032;2023-04-25T07:09:27;9.48;;;2.22;;
60344;SDS011;46188;52.324;8.032;2023-04-25T07:11:52;12.23;;;2.80;;
60344;SDS011;46188;52.324;8.032;2023-04-25T07:14:18;12.38;;;3.28;;
60344;SDS011;46188;52.324;8.032;2023-04-25T07:16:43;8.57;;;2.42;;
60344;SDS011;46188;52.324;8.032;2023-04-25T07:19:08;10.63;;;2.85;;
60344;SDS011;46188;52.324;8.032;2023-04-25T07:21:33;14.63;;;2.83;;
60344;SDS011;46188;52.324;8.032;2023-04-25T07:23:59;15.82;;;2.85;;
60344;SDS011;46188;52.324;8.032;2023-04-25T07:26:24;8.98;;;2.30;;
60344;SDS011;46188;52.324;8.032;2023-04-25T07:28:52;10.07;;;2.92;;
60344;SDS011;46188;52.324;8.032;2023-04-25T07:31:19;11.07;;;2.00;;
60344;SDS011;46188;52.324;8.032;2023-04-25T07:33:44;13.00;;;2.50;;
60344;SDS011;46188;52.324;8.032;2023-04-25T07:36:10;8.38;;;2.30;;
60344;SDS011;46188;52.324;8.032;2023-04-25T07:38:36;9.80;;;2.00;;
60344;SDS011;46188;52.324;8.032;2023-04-25T07:41:01;9.27;;;2.67;;
60344;SDS011;46188;52.324;8.032;2023-04-25T07:43:26;11.68;;;2.15;;
60344;SDS011;46188;52.324;8.032;2023-04-25T07:45:52;6.60;;;2.53;;
60344;SDS011;46188;52.324;8.032;2023-04-25T07:48:17;10.93;;;2.65;;
60344;SDS011;46188;52.324;8.032;2023-04-25T07:50:43;13.93;;;2.38;;
60344;SDS011;46188;52.324;8.032;2023-04-25T07:53:09;12.45;;;2.65;;
60344;SDS011;46188;52.324;8.032;2023-04-25T07:55:34;8.90;;;2.42;;
60344;SDS011;46188;52.324;8.032;2023-04-25T07:58:02;9.07;;;2.30;;
60344;SDS011;46188;52.324;8.032;2023-04-25T08:00:28;6.10;;;1.85;;
60344;SDS011;46188;52.324;8.032;2023-04-25T08:02:53;8.30;;;2.15;;
60344;SDS011;46188;52.324;8.032;2023-04-25T08:05:18;10.27;;;1.85;;
60344;SDS011;46188;52.324;8.032;2023-04-25T08:07:44;6.72;;;2.03;;
60344;SDS011;46188;52.324;8.032;2023-04-25T08:10:09;7.68;;;1.83;;
60344;SDS011;46188;52.324;8.032;2023-04-25T08:12:34;11.77;;;2.25;;
60344;SDS011;46188;52.324;8.032;2023-04-25T08:15:00;10.98;;;2.00;;
60344;SDS011;46188;52.324;8.032;2023-04-25T08:17:25;9.02;;;2.35;;
60344;SDS011;46188;52.324;8.032;2023-04-25T08:19:50;11.50;;;2.30;;
60344;SDS011;46188;52.324;8.032;2023-04-25T08:22:15;5.85;;;2.05;;
60344;SDS011;46188;52.324;8.032;2023-04-25T08:24:41;8.90;;;2.40;;
60344;SDS011;46188;52.324;8.032;2023-04-25T08:27:07;10.57;;;1.98;;
60344;SDS011;46188;52.324;8.032;2023-04-25T08:29:32;9.75;;;2.22;;
60344;SDS011;46188;52.324;8.032;2023-04-25T08:31:58;9.13;;;2.08;;
60344;SDS011;46188;52.324;8.032;2023-04-25T08:34:23;7.40;;;2.20;;
60344;SDS011;46188;52.324;8.032;2023-04-25T08:36:50;8.60;;;2.33;;
60344;SDS011;46188;52.324;8.032;2023-04-25T08:39:15;13.90;;;2.25;;
60344;SDS011;46188;52.324;8.032;2023-04-25T08:41:41;4.78;;;1.75;;
60344;SDS011;46188;52.324;8.032;2023-04-25T08:44:06;7.65;;;1.80;;
60344;SDS011;46188;52.324;8.032;2023-04-25T08:46:35;7.25;;;1.95;;
60344;SDS011;46188;52.324;8.032;2023-04-25T08:49:03;6.95;;;2.25;;
60344;SDS011;46188;52.324;8.032;2023-04-25T08:51:30;6.88;;;1.85;;
60344;SDS011;46188;52.324;8.032;2023-04-25T08:53:57;10.75;;;1.90;;
60344;SDS011;46188;52.324;8.032;2023-04-25T08:56:33;8.30;;;1.92;;
60344;SDS011;46188;52.324;8.032;2023-04-25T08:58:59;6.63;;;1.67;;
60344;SDS011;46188;52.324;8.032;2023-04-25T09:01:25;11.48;;;1.88;;
60344;SDS011;46188;52.324;8.032;2023-04-25T09:03:51;4.32;;;1.75;;
60344;SDS011;46188;52.324;8.032;2023-04-25T09:06:16;8.20;;;1.45;;
60344;SDS011;46188;52.324;8.032;2023-04-25T09:08:42;9.48;;;2.10;;
60344;SDS011;46188;52.324;8.032;2023-04-25T09:11:08;7.18;;;1.98;;
60344;SDS011;46188;52.324;8.032;2023-04-25T09:13:33;8.82;;;2.13;;
60344;SDS011;46188;52.324;8.032;2023-04-25T09:15:58;7.18;;;1.63;;
60344;SDS011;46188;52.324;8.032;2023-04-25T09:18:27;7.13;;;2.08;;
60344;SDS011;46188;52.324;8.032;2023-04-25T09:20:54;7.55;;;1.67;;
60344;SDS011;46188;52.324;8.032;2023-04-25T09:23:21;5.60;;;1.80;;
60344;SDS011;46188;52.324;8.032;2023-04-25T09:25:51;6.35;;;1.85;;
60344;SDS011;46188;52.324;8.032;2023-04-25T09:28:24;5.13;;;1.67;;
60344;SDS011;46188;52.324;8.032;2023-04-25T09:30:54;6.43;;;1.90;;
60344;SDS011;46188;52.324;8.032;2023-04-25T09:33:20;4.07;;;1.42;;
60344;SDS011;46188;52.324;8.032;2023-04-25T09:35:45;7.07;;;1.70;;
60344;SDS011;46188;52.324;8.032;2023-04-25T09:38:14;5.10;;;1.90;;
60344;SDS011;46188;52.324;8.032;2023-04-25T09:40:43;8.25;;;2.15;;
60344;SDS011;46188;52.324;8.032;2023-04-25T09:43:23;10.70;;;1.77;;
60344;SDS011;46188;52.324;8.032;2023-04-25T09:45:49;6.03;;;1.70;;
60344;SDS011;46188;52.324;8.032;2023-04-25T09:48:17;9.95;;;1.70;;
60344;SDS011;46188;52.324;8.032;2023-04-25T09:50:43;6.30;;;1.67;;
60344;SDS011;46188;52.324;8.032;2023-04-25T09:53:09;7.72;;;1.60;;
60344;SDS011;46188;52.324;8.032;2023-04-25T09:55:35;6.85;;;1.73;;
60344;SDS011;46188;52.324;8.032;2023-04-25T09:58:03;8.25;;;1.83;;
60344;SDS011;46188;52.324;8.032;2023-04-25T10:00:33;9.20;;;1.77;;
60344;SDS011;46188;52.324;8.032;2023-04-25T10:03:00;6.97;;;2.83;;
60344;SDS011;46188;52.324;8.032;2023-04-25T10:05:30;12.25;;;3.70;;
60344;SDS011;46188;52.324;8.032;2023-04-25T10:07:58;5.10;;;1.83;;
60344;SDS011;46188;52.324;8.032;2023-04-25T10:10:27;4.50;;;2.15;;
60344;SDS011;46188;52.324;8.032;2023-04-25T10:12:55;7.22;;;2.00;;
60344;SDS011;46188;52.324;8.032;2023-04-25T10:15:21;6.68;;;1.88;;
60344;SDS011;46188;52.324;8.032;2023-04-25T10:17:46;7.07;;;2.15;;
60344;SDS011;46188;52.324;8.032;2023-04-25T10:20:14;8.68;;;2.22;;
60344;SDS011;46188;52.324;8.032;2023-04-25T10:22:43;5.55;;;2.35;;
60344;SDS011;46188;52.324;8.032;2023-04-25T10:25:10;7.45;;;1.80;;
60344;SDS011;46188;52.324;8.032;2023-04-25T10:27:36;5.93;;;1.77;;
60344;SDS011;46188;52.324;8.032;2023-04-25T10:30:05;4.38;;;2.13;;
60344;SDS011;46188;52.324;8.032;2023-04-25T10:32:35;5.43;;;1.75;;
60344;SDS011;46188;52.324;8.032;2023-04-25T10:35:14;5.05;;;1.63;;
60344;SDS011;46188;52.324;8.032;2023-04-25T10:40:34;7.85;;;2.65;;
60344;SDS011;46188;52.324;8.032;2023-04-25T10:43:46;6.38;;;1.92;;
60344;SDS011;46188;52.324;8.032;2023-04-25T10:51:19;3.25;;;1.38;;
60344;SDS011;46188;52.324;8.032;2023-04-25T10:53:45;4.25;;;1.58;;
60344;SDS011;46188;52.324;8.032;2023-04-25T10:56:21;8.30;;;1.95;;
60344;SDS011;46188;52.324;8.032;2023-04-25T10:58:47;5.57;;;1.40;;
60344;SDS011;46188;52.324;8.032;2023-04-25T11:01:14;6.82;;;1.40;;
60344;SDS011;46188;52.324;8.032;2023-04-25T11:03:44;3.28;;;1.35;;
60344;SDS011;46188;52.324;8.032;2023-04-25T11:06:22;2.70;;;1.60;;
60344;SDS011;46188;52.324;8.032;2023-04-25T11:08:54;6.18;;;1.60;;
60344;SDS011;46188;52.324;8.032;2023-04-25T11:11:19;4.65;;;1.45;;
60344;SDS011;46188;52.324;8.032;2023-04-25T11:13:48;5.32;;;1.52;;
60344;SDS011;46188;52.324;8.032;2023-04-25T11:16:15;6.03;;;1.52;;
60344;SDS011;46188;52.324;8.032;2023-04-25T11:18:43;3.85;;;1.40;;
60344;SDS011;46188;52.324;8.032;2023-04-25T11:21:09;7.25;;;1.50;;
60344;SDS011;46188;52.324;8.032;2023-04-25T11:23:35;4.78;;;1.40;;
60344;SDS011;46188;52.324;8.032;2023-04-25T11:26:01;5.68;;;1.65;;
60344;SDS011;46188;52.324;8.032;2023-04-25T11:28:28;4.80;;;1.52;;
60344;SDS011;46188;52.324;8.032;2023-04-25T11:30:53;4.63;;;1.45;;
60344;SDS011;46188;52.324;8.032;2023-04-25T11:33:22;5.38;;;1.75;;
60344;SDS011;46188;52.324;8.032;2023-04-25T11:35:48;6.80;;;1.60;;
60344;SDS011;46188;52.324;8.032;2023-04-25T11:38:14;6.32;;;1.67;;
60344;SDS011;46188;52.324;8.032;2023-04-25T11:40:39;5.60;;;1.58;;
60344;SDS011;46188;52.324;8.032;2023-04-25T11:43:05;8.05;;;1.73;;
60344;SDS011;46188;52.324;8.032;2023-04-25T11:45:30;4.97;;;1.50;;
60344;SDS011;46188;52.324;8.032;2023-04-25T11:47:56;7.68;;;1.58;;
60344;SDS011;46188;52.324;8.032;2023-04-25T11:50:21;10.35;;;3.00;;
60344;SDS011;46188;52.324;8.032;2023-04-25T11:52:47;4.95;;;1.15;;
60344;SDS011;46188;52.324;8.032;2023-04-25T11:55:13;5.25;;;1.45;;
60344;SDS011;46188;52.324;8.032;2023-04-25T11:57:40;4.65;;;1.30;;
60344;SDS011;46188;52.324;8.032;2023-04-25T12:00:11;2.08;;;1.00;;
60344;SDS011;46188;52.324;8.032;2023-04-25T12:02:45;4.22;;;1.65;;
60344;SDS011;46188;52.324;8.032;2023-04-25T12:05:12;3.30;;;0.88;;
60344;SDS011;46188;52.324;8.032;2023-04-25T12:07:40;3.33;;;0.85;;
60344;SDS011;46188;52.324;8.032;2023-04-25T12:12:35;4.05;;;1.17;;
60344;SDS011;46188;52.324;8.032;2023-04-25T12:15:17;2.53;;;0.90;;
60344;SDS011;46188;52.324;8.032;2023-04-25T12:17:50;1.85;;;1.00;;
60344;SDS011;46188;52.324;8.032;2023-04-25T12:20:20;7.18;;;1.25;;
60344;SDS011;46188;52.324;8.032;2023-04-25T12:22:48;4.60;;;1.25;;
60344;SDS011;46188;52.324;8.032;2023-04-25T12:28:19;3.03;;;0.93;;
60344;SDS011;46188;52.324;8.032;2023-04-25T12:33:26;2.95;;;1.10;;
60344;SDS011;46188;52.324;8.032;2023-04-25T12:35:52;3.08;;;1.20;;
60344;SDS011;46188;52.324;8.032;2023-04-25T12:38:25;3.38;;;1.15;;
60344;SDS011;46188;52.324;8.032;2023-04-25T12:40:51;5.67;;;1.43;;
60344;SDS011;46188;52.324;8.032;2023-04-25T12:43:17;5.75;;;1.58;;
60344;SDS011;46188;52.324;8.032;2023-04-25T12:45:48;5.25;;;1.20;;
60344;SDS011;46188;52.324;8.032;2023-04-25T12:48:15;5.70;;;1.40;;
60344;SDS011;46188;52.324;8.032;2023-04-25T12:50:41;5.82;;;0.93;;
60344;SDS011;46188;52.324;8.032;2023-04-25T12:53:06;3.80;;;1.30;;
60344;SDS011;46188;52.324;8.032;2023-04-25T12:55:31;3.15;;;1.20;;
60344;SDS011;46188;52.324;8.032;2023-04-25T12:57:57;3.70;;;1.20;;
60344;SDS011;46188;52.324;8.032;2023-04-25T13:00:22;3.75;;;1.50;;
60344;SDS011;46188;52.324;8.032;2023-04-25T13:02:47;3.95;;;1.40;;
60344;SDS011;46188;52.324;8.032;2023-04-25T13:05:13;3.03;;;1.33;;
60344;SDS011;46188;52.324;8.032;2023-04-25T13:07:38;3.00;;;1.10;;
60344;SDS011;46188;52.324;8.032;2023-04-25T13:10:04;2.42;;;1.30;;
60344;SDS011;46188;52.324;8.032;2023-04-25T13:12:30;4.60;;;1.40;;
60344;SDS011;46188;52.324;8.032;2023-04-25T13:14:55;3.47;;;1.40;;
60344;SDS011;46188;52.324;8.032;2023-04-25T13:17:21;4.32;;;1.90;;
60344;SDS011;46188;52.324;8.032;2023-04-25T13:19:46;5.30;;;1.50;;
60344;SDS011;46188;52.324;8.032;2023-04-25T13:22:11;3.10;;;1.38;;
60344;SDS011;46188;52.324;8.032;2023-04-25T13:24:37;6.20;;;1.40;;
60344;SDS011;46188;52.324;8.032;2023-04-25T13:27:02;3.55;;;1.40;;
60344;SDS011;46188;52.324;8.032;2023-04-25T13:29:28;4.57;;;1.20;;
60344;SDS011;46188;52.324;8.032;2023-04-25T13:31:53;3.22;;;1.45;;
60344;SDS011;46188;52.324;8.032;2023-04-25T13:34:18;6.57;;;1.50;;
60344;SDS011;46188;52.324;8.032;2023-04-25T13:36:43;4.75;;;1.50;;
60344;SDS011;46188;52.324;8.032;2023-04-25T13:39:10;5.78;;;2.20;;
60344;SDS011;46188;52.324;8.032;2023-04-25T13:41:36;5.70;;;1.45;;
60344;SDS011;46188;52.324;8.032;2023-04-25T13:44:01;3.13;;;1.33;;
60344;SDS011;46188;52.324;8.032;2023-04-25T13:46:27;3.60;;;1.25;;
60344;SDS011;46188;52.324;8.032;2023-04-25T13:48:52;3.65;;;1.38;;
60344;SDS011;46188;52.324;8.032;2023-04-25T13:51:17;5.88;;;1.80;;
60344;SDS011;46188;52.324;8.032;2023-04-25T13:53:42;4.82;;;1.38;;
60344;SDS011;46188;52.324;8.032;2023-04-25T13:56:08;5.22;;;1.73;;
60344;SDS011;46188;52.324;8.032;2023-04-25T13:58:33;4.30;;;1.40;;
60344;SDS011;46188;52.324;8.032;2023-04-25T14:00:58;2.85;;;1.10;;
60344;SDS011;46188;52.324;8.032;2023-04-25T14:03:24;2.85;;;1.00;;
60344;SDS011;46188;52.324;8.032;2023-04-25T14:05:50;2.28;;;1.10;;
60344;SDS011;46188;52.324;8.032;2023-04-25T14:08:16;5.03;;;1.08;;
60344;SDS011;46188;52.324;8.032;2023-04-25T14:10:41;3.15;;;1.10;;
60344;SDS011;46188;52.324;8.032;2023-04-25T14:13:06;3.45;;;1.40;;
60344;SDS011;46188;52.324;8.032;2023-04-25T14:15:32;4.57;;;1.55;;
60344;SDS011;46188;52.324;8.032;2023-04-25T14:17:57;4.97;;;1.50;;
60344;SDS011;46188;52.324;8.032;2023-04-25T14:20:22;2.67;;;1.65;;
60344;SDS011;46188;52.324;8.032;2023-04-25T14:22:48;5.95;;;2.83;;
60344;SDS011;46188;52.324;8.032;2023-04-25T14:25:14;4.43;;;1.52;;
60344;SDS011;46188;52.324;8.032;2023-04-25T14:27:39;5.13;;;1.50;;
60344;SDS011;46188;52.324;8.032;2023-04-25T14:30:05;2.88;;;1.20;;
60344;SDS011;46188;52.324;8.032;2023-04-25T14:32:31;4.07;;;1.30;;
60344;SDS011;46188;52.324;8.032;2023-04-25T14:34:57;2.85;;;1.40;;
60344;SDS011;46188;52.324;8.032;2023-04-25T14:37:22;2.97;;;1.30;;
60344;SDS011;46188;52.324;8.032;2023-04-25T14:39:47;3.72;;;1.42;;
60344;SDS011;46188;52.324;8.032;2023-04-25T14:42:12;2.80;;;1.60;;
60344;SDS011;46188;52.324;8.032;2023-04-25T14:44:38;3.45;;;1.20;;
60344;SDS011;46188;52.324;8.032;2023-04-25T14:47:03;3.58;;;1.75;;
60344;SDS011;46188;52.324;8.032;2023-04-25T14:49:28;4.47;;;1.63;;
60344;SDS011;46188;52.324;8.032;2023-04-25T14:51:53;6.53;;;1.90;;